createdAt,value
2018-11-11T00:00:07.025Z,7.9
2018-11-11T00:01:08.077Z,7.9
2018-11-11T00:02:09.123Z,7.9
2018-11-11T00:03:10.340Z,7.9
2018-11-11T00:04:11.719Z,7.9
2018-11-11T00:05:13.269Z,7.9
2018-11-11T00:06:14.497Z,7.9
2018-11-11T00:07:15.704Z,7.9
2018-11-11T00:08:17.086Z,7.9
2018-11-11T00:09:18.469Z,7.9
2018-11-11T00:10:20.020Z,7.9
2018-11-11T00:11:21.400Z,7.8
2018-11-11T00:12:22.625Z,7.8
2018-11-11T00:13:24.012Z,7.8
2018-11-11T00:14:25.222Z,7.8
2018-11-11T00:15:26.311Z,7.8
2018-11-11T00:16:27.859Z,7.8
2018-11-11T00:17:29.238Z,7.8
2018-11-11T00:18:30.467Z,7.8
2018-11-11T00:19:31.851Z,7.8
2018-11-11T00:20:33.253Z,7.8
2018-11-11T00:21:34.776Z,7.9
2018-11-11T00:22:36.374Z,7.9
2018-11-11T00:23:37.929Z,7.9
2018-11-11T00:24:39.326Z,7.9
2018-11-11T00:25:40.435Z,7.9
2018-11-11T00:26:41.969Z,7.9
2018-11-11T00:27:43.375Z,7.9
2018-11-11T00:28:45.436Z,7.9
2018-11-11T00:29:47.052Z,7.9
2018-11-11T00:30:48.260Z,7.9
2018-11-11T00:31:49.655Z,7.9
2018-11-11T00:32:51.234Z,7.9
2018-11-11T00:33:52.339Z,7.9
2018-11-11T00:34:53.886Z,7.9
2018-11-11T00:35:55.425Z,7.9
2018-11-11T00:36:56.977Z,7.9
2018-11-11T00:37:58.523Z,7.9
2018-11-11T00:38:59.568Z,7.9
2018-11-11T00:40:00.968Z,7.9
2018-11-11T00:41:02.362Z,7.9
2018-11-11T00:42:03.731Z,7.9
2018-11-11T00:43:05.122Z,7.7
2018-11-11T00:44:06.181Z,7.8
2018-11-11T00:45:07.582Z,7.9
2018-11-11T00:46:09.126Z,7.6
2018-11-11T00:47:10.331Z,7.8
2018-11-11T00:48:11.868Z,7.9
2018-11-11T00:49:12.764Z,7.3
2018-11-11T00:50:13.965Z,7.5
2018-11-11T00:51:15.360Z,7.8
2018-11-11T00:52:16.734Z,7.9
2018-11-11T00:53:17.939Z,7.9
2018-11-11T00:54:19.310Z,7.9
2018-11-11T00:55:20.532Z,7.9
2018-11-11T00:56:21.740Z,7.9
2018-11-11T00:57:22.607Z,7.9
2018-11-11T00:58:23.818Z,7.9
2018-11-11T00:59:25.057Z,7.9
2018-11-11T01:00:26.259Z,7.9
2018-11-11T01:01:27.655Z,7.9
2018-11-11T01:02:29.185Z,7.5
2018-11-11T01:03:30.395Z,7.7
2018-11-11T01:04:31.776Z,7.8
2018-11-11T01:05:33.323Z,7.9
2018-11-11T01:06:34.543Z,7.3
2018-11-11T01:07:35.585Z,7.5
2018-11-11T01:08:36.805Z,7.6
2018-11-11T01:09:38.364Z,7.7
2018-11-11T01:10:39.906Z,7.8
2018-11-11T01:11:41.115Z,7.9
2018-11-11T01:12:42.527Z,7.9
2018-11-11T01:13:43.927Z,7.9
2018-11-11T01:14:45.169Z,7.9
2018-11-11T01:15:46.369Z,7.9
2018-11-11T01:16:47.787Z,7.9
2018-11-11T01:17:49.174Z,7.9
2018-11-11T01:18:50.370Z,7.9
2018-11-11T01:19:51.640Z,7.9
2018-11-11T01:20:52.723Z,7.9
2018-11-11T01:21:54.114Z,7.9
2018-11-11T01:22:55.334Z,7.9
2018-11-11T01:23:56.708Z,7.9
2018-11-11T01:24:58.093Z,7.9
2018-11-11T01:25:59.141Z,7.9
2018-11-11T01:27:00.520Z,7.9
2018-11-11T01:28:01.777Z,7.9
2018-11-11T01:29:03.331Z,7.9
2018-11-11T01:30:04.532Z,7.2
2018-11-11T01:31:05.774Z,7.3
2018-11-11T01:32:06.826Z,7.4
2018-11-11T01:33:08.043Z,7.5
2018-11-11T01:34:09.599Z,7.6
2018-11-11T01:35:10.812Z,7.6
2018-11-11T01:36:12.373Z,7.7
2018-11-11T01:37:13.759Z,7.8
2018-11-11T01:38:15.011Z,7.8
2018-11-11T01:39:16.239Z,7.9
2018-11-11T01:40:17.645Z,7.9
2018-11-11T01:41:19.170Z,7.9
2018-11-11T01:42:20.372Z,7.9
2018-11-11T01:43:21.929Z,7.9
2018-11-11T01:44:23.312Z,7.9
2018-11-11T01:45:24.699Z,7.8
2018-11-11T01:46:25.918Z,7.8
2018-11-11T01:47:27.296Z,7.8
2018-11-11T01:48:28.834Z,7.8
2018-11-11T01:49:29.886Z,7.8
2018-11-11T01:50:31.272Z,7.8
2018-11-11T01:51:32.649Z,7.8
2018-11-11T01:52:33.713Z,7.8
2018-11-11T01:53:34.920Z,7.8
2018-11-11T01:54:36.130Z,7.8
2018-11-11T01:55:38.289Z,7.8
2018-11-11T01:56:39.665Z,7.8
2018-11-11T01:57:41.067Z,7.8
2018-11-11T01:58:42.449Z,7.9
2018-11-11T01:59:43.811Z,7.9
2018-11-11T02:00:45.196Z,7.9
2018-11-11T02:01:46.236Z,7.9
2018-11-11T02:02:47.816Z,7.2
2018-11-11T02:03:49.349Z,7.3
2018-11-11T02:04:50.757Z,7.3
2018-11-11T02:05:51.958Z,7.3
2018-11-11T02:06:53.489Z,7.3
2018-11-11T02:07:54.850Z,7.2
2018-11-11T02:08:56.400Z,7.2
2018-11-11T02:09:58.885Z,7.2
2018-11-11T02:11:00.196Z,7.2
2018-11-11T02:12:01.269Z,7.2
2018-11-11T02:13:02.670Z,7.2
2018-11-11T02:14:04.215Z,7.2
2018-11-11T02:15:05.581Z,7.2
2018-11-11T02:16:07.199Z,7.2
2018-11-11T02:17:08.738Z,7.2
2018-11-11T02:18:09.949Z,7.2
2018-11-11T02:19:11.342Z,7.2
2018-11-11T02:20:12.890Z,7.2
2018-11-11T02:21:15.256Z,7.2
2018-11-11T02:22:16.508Z,7.2
2018-11-11T02:23:17.932Z,7.2
2018-11-11T02:24:19.140Z,7.2
2018-11-11T02:25:20.691Z,7.2
2018-11-11T02:26:21.919Z,7.1
2018-11-11T02:27:23.479Z,7.1
2018-11-11T02:28:24.699Z,7.1
2018-11-11T02:29:25.910Z,7.1
2018-11-11T02:30:27.320Z,7.1
2018-11-11T02:31:28.717Z,7.1
2018-11-11T02:32:30.260Z,7.1
2018-11-11T02:33:31.148Z,7.1
2018-11-11T02:34:32.380Z,7.1
2018-11-11T02:35:33.761Z,7.1
2018-11-11T02:36:35.220Z,7.1
2018-11-11T02:37:37.504Z,7.1
2018-11-11T02:38:38.968Z,7.1
2018-11-11T02:39:40.160Z,7.1
2018-11-11T02:40:41.377Z,7.1
2018-11-11T02:41:42.913Z,7.1
2018-11-11T02:42:44.512Z,7.1
2018-11-11T02:43:45.908Z,7.1
2018-11-11T02:44:47.277Z,7.1
2018-11-11T02:45:48.810Z,7.1
2018-11-11T02:46:50.183Z,7.1
2018-11-11T02:47:51.572Z,7.2
2018-11-11T02:48:52.950Z,7.1
2018-11-11T02:49:54.501Z,7.1
2018-11-11T02:50:55.742Z,7.2
2018-11-11T02:51:56.955Z,7.2
2018-11-11T02:52:58.356Z,7.2
2018-11-11T02:53:59.903Z,7.2
2018-11-11T02:55:01.139Z,7.2
2018-11-11T02:56:02.189Z,7.2
2018-11-11T02:57:03.394Z,7.2
2018-11-11T02:58:04.616Z,7.2
2018-11-11T02:59:06.168Z,7.2
2018-11-11T03:00:07.244Z,7.2
2018-11-11T03:01:08.496Z,7.3
2018-11-11T03:02:09.889Z,7.3
2018-11-11T03:03:11.439Z,7.3
2018-11-11T03:04:13.272Z,7.3
2018-11-11T03:05:14.697Z,7.4
2018-11-11T03:06:16.256Z,7.4
2018-11-11T03:07:17.810Z,7.5
2018-11-11T03:08:19.010Z,7.5
2018-11-11T03:09:20.554Z,7.6
2018-11-11T03:10:22.106Z,7.7
2018-11-11T03:11:22.986Z,7.7
2018-11-11T03:12:24.524Z,7.8
2018-11-11T03:13:26.080Z,7.8
2018-11-11T03:14:27.628Z,7.9
2018-11-11T03:15:28.836Z,7.9
2018-11-11T03:16:30.378Z,7.9
2018-11-11T03:17:31.747Z,7.9
2018-11-11T03:18:33.108Z,7.9
2018-11-11T03:19:34.527Z,7.9
2018-11-11T03:20:35.752Z,7.9
2018-11-11T03:21:37.329Z,7.9
2018-11-11T03:22:38.738Z,7.9
2018-11-11T03:23:39.938Z,7.9
2018-11-11T03:24:41.353Z,7.9
2018-11-11T03:25:42.909Z,7.9
2018-11-11T03:26:44.144Z,7.9
2018-11-11T03:27:45.708Z,7.9
2018-11-11T03:28:47.095Z,7.8
2018-11-11T03:29:48.455Z,7.9
2018-11-11T03:30:50.015Z,7.8
2018-11-11T03:31:52.000Z,7.8
2018-11-11T03:32:53.226Z,7.8
2018-11-11T03:33:54.792Z,7.8
2018-11-11T03:34:56.168Z,7.8
2018-11-11T03:35:57.220Z,7.8
2018-11-11T03:36:58.096Z,7.8
2018-11-11T03:37:59.333Z,7.8
2018-11-11T03:39:00.724Z,7.8
2018-11-11T03:40:01.937Z,7.9
2018-11-11T03:41:03.307Z,7.8
2018-11-11T03:42:04.365Z,7.9
2018-11-11T03:43:05.760Z,7.9
2018-11-11T03:44:06.977Z,7.9
2018-11-11T03:45:08.538Z,7.9
2018-11-11T03:46:09.760Z,7.9
2018-11-11T03:47:11.146Z,7.9
2018-11-11T03:48:12.548Z,7.9
2018-11-11T03:49:13.750Z,7.9
2018-11-11T03:50:15.150Z,7.9
2018-11-11T03:51:16.520Z,7.9
2018-11-11T03:52:18.054Z,7.8
2018-11-11T03:53:19.453Z,7.8
2018-11-11T03:54:20.538Z,7.8
2018-11-11T03:55:21.763Z,7.8
2018-11-11T03:56:23.147Z,7.8
2018-11-11T03:57:24.546Z,7.8
2018-11-11T03:58:26.093Z,7.8
2018-11-11T03:59:27.315Z,7.8
2018-11-11T04:00:28.371Z,7.8
2018-11-11T04:01:29.923Z,7.8
2018-11-11T04:02:31.502Z,7.8
2018-11-11T04:03:32.878Z,7.9
2018-11-11T04:04:34.083Z,7.9
2018-11-11T04:05:35.636Z,7.9
2018-11-11T04:06:36.861Z,7.9
2018-11-11T04:07:38.442Z,7.9
2018-11-11T04:08:39.808Z,7.9
2018-11-11T04:09:41.205Z,7.9
2018-11-11T04:10:42.741Z,7.9
2018-11-11T04:11:44.292Z,7.9
2018-11-11T04:12:45.673Z,7.9
2018-11-11T04:13:47.092Z,7.9
2018-11-11T04:14:48.468Z,7.8
2018-11-11T04:15:49.848Z,7.8
2018-11-11T04:16:51.396Z,7.7
2018-11-11T04:17:52.776Z,7.6
2018-11-11T04:18:53.980Z,7.5
2018-11-11T04:19:55.352Z,7.4
2018-11-11T04:20:56.896Z,7.2
2018-11-11T04:21:58.282Z,7.2
2018-11-11T04:22:59.681Z,7.2
2018-11-11T04:24:00.904Z,7.1
2018-11-11T04:25:02.282Z,7.1
2018-11-11T04:26:03.649Z,7.1
2018-11-11T04:27:04.876Z,7.1
2018-11-11T04:28:06.435Z,7.1
2018-11-11T04:29:07.969Z,7.2
2018-11-11T04:30:09.387Z,7.1
2018-11-11T04:31:10.597Z,7.1
2018-11-11T04:32:11.969Z,7.1
2018-11-11T04:33:13.510Z,7.1
2018-11-11T04:34:15.048Z,7.1
2018-11-11T04:35:16.636Z,7.1
2018-11-11T04:36:18.223Z,7.1
2018-11-11T04:37:19.622Z,7.1
2018-11-11T04:38:21.173Z,7.2
2018-11-11T04:39:23.733Z,7.2
2018-11-11T04:40:24.849Z,7.2
2018-11-11T04:41:26.385Z,7.2
2018-11-11T04:42:27.768Z,7.2
2018-11-11T04:43:29.305Z,7.2
2018-11-11T04:44:30.509Z,7.2
2018-11-11T04:45:31.900Z,7.2
2018-11-11T04:46:33.913Z,7.2
2018-11-11T04:47:35.523Z,7.2
2018-11-11T04:48:36.908Z,7.2
2018-11-11T04:49:38.128Z,7.2
2018-11-11T04:50:39.516Z,7.2
2018-11-11T04:51:41.084Z,7.3
2018-11-11T04:52:42.475Z,7.3
2018-11-11T04:53:44.039Z,7.4
2018-11-11T04:54:45.413Z,7.5
2018-11-11T04:55:46.956Z,7.6
2018-11-11T04:56:48.487Z,7.7
2018-11-11T04:57:49.716Z,7.8
2018-11-11T04:58:51.136Z,7.9
2018-11-11T04:59:52.362Z,7.7
2018-11-11T05:00:53.919Z,7.8
2018-11-11T05:01:55.138Z,7.9
2018-11-11T05:02:56.349Z,7.8
2018-11-11T05:03:57.563Z,7.9
2018-11-11T05:04:58.928Z,7.9
2018-11-11T05:06:00.161Z,7.7
2018-11-11T05:07:01.708Z,7.8
2018-11-11T05:08:03.078Z,7.9
2018-11-11T05:09:04.454Z,7.9
2018-11-11T05:10:06.017Z,7.9
2018-11-11T05:11:07.248Z,7.9
2018-11-11T05:12:08.470Z,7.9
2018-11-11T05:13:09.859Z,7.9
2018-11-11T05:14:11.237Z,7.8
2018-11-11T05:15:12.779Z,7.9
2018-11-11T05:16:13.988Z,7.9
2018-11-11T05:17:15.534Z,7.9
2018-11-11T05:18:16.763Z,7.9
2018-11-11T05:19:18.142Z,7.9
2018-11-11T05:20:19.356Z,7.9
2018-11-11T05:21:20.739Z,7.9
2018-11-11T05:22:22.141Z,7.8
2018-11-11T05:23:23.677Z,7.9
2018-11-11T05:24:25.061Z,7.9
2018-11-11T05:25:26.279Z,7.9
2018-11-11T05:26:27.511Z,7.9
2018-11-11T05:27:28.552Z,7.9
2018-11-11T05:28:29.779Z,7.9
2018-11-11T05:29:31.169Z,7.9
2018-11-11T05:30:32.540Z,7.9
2018-11-11T05:31:33.748Z,7.9
2018-11-11T05:32:35.291Z,7.9
2018-11-11T05:33:36.681Z,7.9
2018-11-11T05:34:38.273Z,7.9
2018-11-11T05:35:39.809Z,7.9
2018-11-11T05:36:41.197Z,7.9
2018-11-11T05:37:42.578Z,7.8
2018-11-11T05:38:43.782Z,7.8
2018-11-11T05:39:45.319Z,7.8
2018-11-11T05:40:46.529Z,7.8
2018-11-11T05:41:48.099Z,7.8
2018-11-11T05:42:49.309Z,7.8
2018-11-11T05:43:50.557Z,7.8
2018-11-11T05:44:51.944Z,7.9
2018-11-11T05:45:53.470Z,7.9
2018-11-11T05:46:54.853Z,7.9
2018-11-11T05:47:56.385Z,7.9
2018-11-11T05:48:57.759Z,7.9
2018-11-11T05:49:59.133Z,7.9
2018-11-11T05:51:00.666Z,7.9
2018-11-11T05:52:02.059Z,7.9
2018-11-11T05:53:03.119Z,7.9
2018-11-11T05:54:04.659Z,7.8
2018-11-11T05:55:05.868Z,7.8
2018-11-11T05:56:07.248Z,7.8
2018-11-11T05:57:08.799Z,7.8
2018-11-11T05:58:10.003Z,7.8
2018-11-11T05:59:11.379Z,7.8
2018-11-11T06:00:12.929Z,7.9
2018-11-11T06:01:13.645Z,7.9
2018-11-11T06:02:15.199Z,7.9
2018-11-11T06:03:16.405Z,7.9
2018-11-11T06:04:17.627Z,7.9
2018-11-11T06:05:18.989Z,7.9
2018-11-11T06:06:20.027Z,7.9
2018-11-11T06:07:20.913Z,7.9
2018-11-11T06:08:22.290Z,7.9
2018-11-11T06:09:23.829Z,7.9
2018-11-11T06:10:25.477Z,7.9
2018-11-11T06:11:27.080Z,7.8
2018-11-11T06:12:28.500Z,7.8
2018-11-11T06:13:29.712Z,7.7
2018-11-11T06:14:31.089Z,7.6
2018-11-11T06:15:32.461Z,7.5
2018-11-11T06:16:33.669Z,7.3
2018-11-11T06:17:35.059Z,7.2
2018-11-11T06:18:36.452Z,7.2
2018-11-11T06:19:37.849Z,7.1
2018-11-11T06:20:39.398Z,7.1
2018-11-11T06:21:40.929Z,7.1
2018-11-11T06:22:42.310Z,7.1
2018-11-11T06:23:43.844Z,7.1
2018-11-11T06:24:45.265Z,7.1
2018-11-11T06:25:46.159Z,7.1
2018-11-11T06:26:47.528Z,7.1
2018-11-11T06:27:49.070Z,7.2
2018-11-11T06:28:50.453Z,7.1
2018-11-11T06:29:51.843Z,7.2
2018-11-11T06:30:53.388Z,7.2
2018-11-11T06:31:54.760Z,7.2
2018-11-11T06:32:56.326Z,7.2
2018-11-11T06:33:57.955Z,7.2
2018-11-11T06:34:59.530Z,7.2
2018-11-11T06:36:01.073Z,7.2
2018-11-11T06:37:02.654Z,7.2
2018-11-11T06:38:04.056Z,7.2
2018-11-11T06:39:05.264Z,7.3
2018-11-11T06:40:06.678Z,7.3
2018-11-11T06:41:08.073Z,7.4
2018-11-11T06:42:09.455Z,7.5
2018-11-11T06:43:10.859Z,7.6
2018-11-11T06:44:12.244Z,7.7
2018-11-11T06:45:13.626Z,7.9
2018-11-11T06:46:15.019Z,7.9
2018-11-11T06:47:16.389Z,7.9
2018-11-11T06:48:32.646Z,7.9
2018-11-11T06:49:34.210Z,7.9
2018-11-11T06:50:35.777Z,7.9
2018-11-11T06:51:37.000Z,7.9
2018-11-11T06:52:38.401Z,7.9
2018-11-11T06:53:39.939Z,7.9
2018-11-11T06:54:41.326Z,7.3
2018-11-11T06:55:42.729Z,7.4
2018-11-11T06:56:44.208Z,7.5
2018-11-11T06:57:45.427Z,7.6
2018-11-11T06:58:46.858Z,7.8
2018-11-11T06:59:48.092Z,7.9
2018-11-11T07:00:49.665Z,7.9
2018-11-11T07:01:50.879Z,7.9
2018-11-11T07:02:52.424Z,7.9
2018-11-11T07:03:53.806Z,7.9
2018-11-11T07:04:55.055Z,7.9
2018-11-11T07:05:56.280Z,7.9
2018-11-11T07:06:57.329Z,7.9
2018-11-11T07:07:58.549Z,7.9
2018-11-11T07:08:59.956Z,7.9
2018-11-11T07:10:01.555Z,7.9
2018-11-11T07:11:02.941Z,7.9
2018-11-11T07:12:03.993Z,7.9
2018-11-11T07:13:05.535Z,7.9
2018-11-11T07:14:07.874Z,7.9
2018-11-11T07:15:09.469Z,7.9
2018-11-11T07:16:10.682Z,7.8
2018-11-11T07:17:12.218Z,7.8
2018-11-11T07:18:13.594Z,7.8
2018-11-11T07:19:15.151Z,7.8
2018-11-11T07:20:16.683Z,7.8
2018-11-11T07:21:17.928Z,7.8
2018-11-11T07:22:19.488Z,7.9
2018-11-11T07:23:21.082Z,7.9
2018-11-11T07:24:22.686Z,7.9
2018-11-11T07:25:24.233Z,7.8
2018-11-11T07:26:25.642Z,7.8
2018-11-11T07:27:27.188Z,7.8
2018-11-11T07:28:28.750Z,7.8
2018-11-11T07:29:29.989Z,7.7
2018-11-11T07:30:31.551Z,7.7
2018-11-11T07:31:33.012Z,7.7
2018-11-11T07:32:34.661Z,7.7
2018-11-11T07:33:36.300Z,7.7
2018-11-11T07:34:37.705Z,7.7
2018-11-11T07:35:39.247Z,7.7
2018-11-11T07:36:40.796Z,7.7
2018-11-11T07:37:42.011Z,7.8
2018-11-11T07:38:43.250Z,7.8
2018-11-11T07:39:44.470Z,7.9
2018-11-11T07:40:45.874Z,7.9
2018-11-11T07:41:47.265Z,7.9
2018-11-11T07:42:48.654Z,7.9
2018-11-11T07:43:50.223Z,7.9
2018-11-11T07:44:51.483Z,7.9
2018-11-11T07:45:52.881Z,7.8
2018-11-11T07:46:54.257Z,7.8
2018-11-11T07:47:56.217Z,7.8
2018-11-11T07:48:57.391Z,7.8
2018-11-11T07:49:58.968Z,7.8
2018-11-11T07:51:00.532Z,7.8
2018-11-11T07:52:03.434Z,7.8
2018-11-11T07:53:05.033Z,7.8
2018-11-11T07:54:06.418Z,7.9
2018-11-11T07:55:08.884Z,7.9
2018-11-11T07:56:10.559Z,7.9
2018-11-11T07:57:12.135Z,7.9
2018-11-11T07:58:13.639Z,7.9
2018-11-11T07:59:15.030Z,7.9
2018-11-11T08:00:16.424Z,7.9
2018-11-11T08:01:17.810Z,7.8
2018-11-11T08:02:19.964Z,7.9
2018-11-11T08:03:21.568Z,7.2
2018-11-11T08:04:23.116Z,7.6
2018-11-11T08:05:24.688Z,7.8
2018-11-11T08:06:26.072Z,7.9
2018-11-11T08:07:27.531Z,7.2
2018-11-11T08:08:28.896Z,7.3
2018-11-11T08:09:30.458Z,7.3
2018-11-11T08:10:31.517Z,7.3
2018-11-11T08:11:33.148Z,7.2
2018-11-11T08:12:34.380Z,7.2
2018-11-11T08:13:35.929Z,7.2
2018-11-11T08:14:37.497Z,7.1
2018-11-11T08:15:39.059Z,7.2
2018-11-11T08:16:40.788Z,7.2
2018-11-11T08:17:41.989Z,7.2
2018-11-11T08:18:43.535Z,7.1
2018-11-11T08:19:45.085Z,7.1
2018-11-11T08:20:46.638Z,7.1
2018-11-11T08:21:47.863Z,7.1
2018-11-11T08:22:49.420Z,7.1
2018-11-11T08:23:50.989Z,7.1
2018-11-11T08:24:52.031Z,7.1
2018-11-11T08:25:53.592Z,7.1
2018-11-11T08:26:54.975Z,7.1
2018-11-11T08:27:56.199Z,7.1
2018-11-11T08:28:57.605Z,7.2
2018-11-11T08:29:59.152Z,7.2
2018-11-11T08:31:00.691Z,7.1
2018-11-11T08:32:02.621Z,7.2
2018-11-11T08:33:03.687Z,7.1
2018-11-11T08:34:04.929Z,7.1
2018-11-11T08:35:06.318Z,7.2
2018-11-11T08:36:07.908Z,7.2
2018-11-11T08:37:09.353Z,7.2
2018-11-11T08:38:10.591Z,7.2
2018-11-11T08:39:11.989Z,7.2
2018-11-11T08:40:13.385Z,7.2
2018-11-11T08:41:14.969Z,7.2
2018-11-11T08:42:16.186Z,7.2
2018-11-11T08:43:17.582Z,7.2
2018-11-11T08:44:19.145Z,7.3
2018-11-11T08:45:20.566Z,7.3
2018-11-11T08:46:21.990Z,7.4
2018-11-11T08:47:23.041Z,7.5
2018-11-11T08:48:25.291Z,7.6
2018-11-11T08:49:26.898Z,7.7
2018-11-11T08:50:28.491Z,7.8
2018-11-11T08:51:29.866Z,7.9
2018-11-11T08:52:30.929Z,7.9
2018-11-11T08:53:32.148Z,7.9
2018-11-11T08:54:33.466Z,7.9
2018-11-11T08:55:34.708Z,7.9
2018-11-11T08:56:35.779Z,7.9
2018-11-11T08:57:37.182Z,7.9
2018-11-11T08:58:38.588Z,7.9
2018-11-11T08:59:39.824Z,7.9
2018-11-11T09:00:41.224Z,7.9
2018-11-11T09:01:42.310Z,7.9
2018-11-11T09:02:43.866Z,7.9
2018-11-11T09:03:45.253Z,7.7
2018-11-11T09:04:47.164Z,7.8
2018-11-11T09:05:48.405Z,7.9
2018-11-11T09:06:49.618Z,7.9
2018-11-11T09:07:51.012Z,7.9
2018-11-11T09:08:52.231Z,7.9
2018-11-11T09:09:53.638Z,7.9
2018-11-11T09:10:55.038Z,7.9
2018-11-11T09:11:56.260Z,7.9
2018-11-11T09:12:57.864Z,7.9
2018-11-11T09:13:59.420Z,7.9
2018-11-11T09:15:01.010Z,7.9
2018-11-11T09:16:02.094Z,7.9
2018-11-11T09:17:03.311Z,7.9
2018-11-11T09:18:04.740Z,7.9
2018-11-11T09:19:06.343Z,7.9
2018-11-11T09:20:07.904Z,7.9
2018-11-11T09:21:09.584Z,7.9
2018-11-11T09:22:10.826Z,7.9
2018-11-11T09:23:12.422Z,7.9
2018-11-11T09:24:13.846Z,7.8
2018-11-11T09:25:15.208Z,7.8
2018-11-11T09:26:16.461Z,7.8
2018-11-11T09:27:17.849Z,7.8
2018-11-11T09:28:18.930Z,7.8
2018-11-11T09:29:20.670Z,7.8
2018-11-11T09:30:23.107Z,7.8
2018-11-11T09:31:24.584Z,7.9
2018-11-11T09:32:25.817Z,7.9
2018-11-11T09:33:27.212Z,7.9
2018-11-11T09:34:28.464Z,7.9
2018-11-11T09:35:30.212Z,7.9
2018-11-11T09:36:31.599Z,7.9
2018-11-11T09:37:32.992Z,7.8
2018-11-11T09:38:34.551Z,7.8
2018-11-11T09:39:35.940Z,7.8
2018-11-11T09:40:37.328Z,7.8
2018-11-11T09:41:38.360Z,7.8
2018-11-11T09:42:41.000Z,7.8
2018-11-11T09:43:42.602Z,7.8
2018-11-11T09:44:44.158Z,7.8
2018-11-11T09:45:45.548Z,7.8
2018-11-11T09:46:46.776Z,7.8
2018-11-11T09:47:48.544Z,7.7
2018-11-11T09:48:49.778Z,7.7
2018-11-11T09:49:51.022Z,7.7
2018-11-11T09:50:52.429Z,7.6
2018-11-11T09:51:53.812Z,7.6
2018-11-11T09:52:55.319Z,7.5
2018-11-11T09:53:56.960Z,7.5
2018-11-11T09:54:58.530Z,7.5
2018-11-11T09:55:59.922Z,7.5
2018-11-11T09:57:01.335Z,7.5
2018-11-11T09:58:02.740Z,7.6
2018-11-11T09:59:04.310Z,7.6
2018-11-11T10:00:05.722Z,7.6
2018-11-11T10:01:06.967Z,7.7
2018-11-11T10:02:08.223Z,7.7
2018-11-11T10:03:09.629Z,7.7
2018-11-11T10:04:10.686Z,7.7
2018-11-11T10:05:11.930Z,7.6
2018-11-11T10:06:12.705Z,7.6
2018-11-11T10:07:14.639Z,7.5
2018-11-11T10:08:15.896Z,7.3
2018-11-11T10:09:17.457Z,7.2
2018-11-11T10:10:18.857Z,7.1
2018-11-11T10:11:20.253Z,7.2
2018-11-11T10:12:22.137Z,7.1
2018-11-11T10:13:23.500Z,7.2
2018-11-11T10:14:24.908Z,7.1
2018-11-11T10:15:26.299Z,7.1
2018-11-11T10:16:27.708Z,7.2
2018-11-11T10:17:29.263Z,7.1
2018-11-11T10:18:30.684Z,7.2
2018-11-11T10:19:32.236Z,7.2
2018-11-11T10:20:33.636Z,7.2
2018-11-11T10:21:35.192Z,7.2
2018-11-11T10:22:36.592Z,7.2
2018-11-11T10:23:38.158Z,7.2
2018-11-11T10:24:39.717Z,7.2
2018-11-11T10:25:40.927Z,7.2
2018-11-11T10:26:42.357Z,7.2
2018-11-11T10:27:43.958Z,7.2
2018-11-11T10:28:45.511Z,7.2
2018-11-11T10:29:47.025Z,7.2
2018-11-11T10:30:48.227Z,7.2
2018-11-11T10:31:49.458Z,7.2
2018-11-11T10:32:50.359Z,7.2
2018-11-11T10:33:51.917Z,7.3
2018-11-11T10:34:52.995Z,7.3
2018-11-11T10:35:54.380Z,7.3
2018-11-11T10:36:55.948Z,7.4
2018-11-11T10:37:57.492Z,7.4
2018-11-11T10:38:59.092Z,7.5
2018-11-11T10:40:00.497Z,7.6
2018-11-11T10:41:01.975Z,7.6
2018-11-11T10:42:03.541Z,7.7
2018-11-11T10:43:04.964Z,7.8
2018-11-11T10:44:06.463Z,7.8
2018-11-11T10:45:07.699Z,7.9
2018-11-11T10:46:08.921Z,7.6
2018-11-11T10:47:10.472Z,7.8
2018-11-11T10:48:11.881Z,7.9
2018-11-11T10:49:13.459Z,7.9
2018-11-11T10:50:14.855Z,7.8
2018-11-11T10:51:16.071Z,7.9
2018-11-11T10:52:17.656Z,7.9
2018-11-11T10:53:19.266Z,7.9
2018-11-11T10:54:20.880Z,7.9
2018-11-11T10:55:22.060Z,7.9
2018-11-11T10:56:23.479Z,7.9
2018-11-11T10:57:24.732Z,7.9
2018-11-11T10:58:25.967Z,7.6
2018-11-11T10:59:27.190Z,7.8
2018-11-11T11:00:28.607Z,7.9
2018-11-11T11:01:29.821Z,7.9
2018-11-11T11:02:31.278Z,7.9
2018-11-11T11:03:32.703Z,7.9
2018-11-11T11:04:34.091Z,7.9
2018-11-11T11:05:35.330Z,7.9
2018-11-11T11:06:36.552Z,7.9
2018-11-11T11:07:37.950Z,7.9
2018-11-11T11:08:39.521Z,7.9
2018-11-11T11:09:40.911Z,7.9
2018-11-11T11:10:42.136Z,7.9
2018-11-11T11:11:43.693Z,7.9
2018-11-11T11:12:45.256Z,7.9
2018-11-11T11:13:47.297Z,7.9
2018-11-11T11:14:48.847Z,7.9
2018-11-11T11:15:50.388Z,7.9
2018-11-11T11:16:51.960Z,7.8
2018-11-11T11:17:53.361Z,7.8
2018-11-11T11:18:54.919Z,7.8
2018-11-11T11:19:56.504Z,7.8
2018-11-11T11:20:58.053Z,7.8
2018-11-11T11:21:59.280Z,7.8
2018-11-11T11:23:01.514Z,7.8
2018-11-11T11:24:02.987Z,7.8
2018-11-11T11:25:04.240Z,7.8
2018-11-11T11:26:05.448Z,7.8
2018-11-11T11:27:07.541Z,7.8
2018-11-11T11:28:08.779Z,7.8
2018-11-11T11:29:10.019Z,7.7
2018-11-11T11:30:11.590Z,7.7
2018-11-11T11:31:13.367Z,7.7
2018-11-11T11:32:16.213Z,7.7
2018-11-11T11:33:17.717Z,7.7
2018-11-11T11:34:18.941Z,7.7
2018-11-11T11:35:21.044Z,7.7
2018-11-11T11:36:22.589Z,7.7
2018-11-11T11:37:24.197Z,7.8
2018-11-11T11:38:26.193Z,7.8
2018-11-11T11:39:27.529Z,7.8
2018-11-11T11:40:28.782Z,7.8
2018-11-11T11:41:30.403Z,7.8
2018-11-11T11:42:32.045Z,7.7
2018-11-11T11:43:33.276Z,7.7
2018-11-11T11:44:34.513Z,7.6
2018-11-11T11:45:36.097Z,7.4
2018-11-11T11:46:37.511Z,7.3
2018-11-11T11:47:39.302Z,7.2
2018-11-11T11:48:40.704Z,7.2
2018-11-11T11:49:41.786Z,7.1
2018-11-11T11:50:43.373Z,7.1
2018-11-11T11:51:44.936Z,7.1
2018-11-11T11:52:46.637Z,7.1
2018-11-11T11:53:47.907Z,7.1
2018-11-11T11:54:49.159Z,7.2
2018-11-11T11:55:50.708Z,7.1
2018-11-11T11:56:51.985Z,7.1
2018-11-11T11:57:53.490Z,7.1
2018-11-11T11:58:54.930Z,7.1
2018-11-11T11:59:56.314Z,7.1
2018-11-11T12:00:58.058Z,7.1
2018-11-11T12:01:59.690Z,7.2
2018-11-11T12:03:00.980Z,7.2
2018-11-11T12:04:02.387Z,7.1
2018-11-11T12:05:03.816Z,7.1
2018-11-11T12:06:05.058Z,7.1
2018-11-11T12:07:06.315Z,7.2
2018-11-11T12:08:07.709Z,7.2
2018-11-11T12:09:09.505Z,7.2
2018-11-11T12:10:10.710Z,7.2
2018-11-11T12:11:11.940Z,7.2
2018-11-11T12:12:13.349Z,7.2
2018-11-11T12:13:14.588Z,7.2
2018-11-11T12:14:15.994Z,7.2
2018-11-11T12:15:17.585Z,7.2
2018-11-11T12:16:19.231Z,7.2
2018-11-11T12:17:20.660Z,7.2
2018-11-11T12:18:21.741Z,7.2
2018-11-11T12:19:23.325Z,7.2
2018-11-11T12:20:24.919Z,7.2
2018-11-11T12:21:26.186Z,7.2
2018-11-11T12:22:27.836Z,7.3
2018-11-11T12:23:29.275Z,7.3
2018-11-11T12:24:30.343Z,7.3
2018-11-11T12:25:31.393Z,7.4
2018-11-11T12:26:32.991Z,7.4
2018-11-11T12:27:34.387Z,7.5
2018-11-11T12:28:35.959Z,7.5
2018-11-11T12:29:37.023Z,7.6
2018-11-11T12:30:38.706Z,7.7
2018-11-11T12:31:40.273Z,7.9
2018-11-11T12:32:41.657Z,7.9
2018-11-11T12:33:43.250Z,7.7
2018-11-11T12:34:44.865Z,7.8
2018-11-11T12:35:46.260Z,7.9
2018-11-11T12:36:47.808Z,7.9
2018-11-11T12:37:49.218Z,7.9
2018-11-11T12:38:50.661Z,7.9
2018-11-11T12:39:53.971Z,7.9
2018-11-11T12:40:55.568Z,7.2
2018-11-11T12:41:57.149Z,7.4
2018-11-11T12:42:58.553Z,7.5
2018-11-11T12:43:59.603Z,7.6
2018-11-11T12:45:00.879Z,7.7
2018-11-11T12:46:02.292Z,7.8
2018-11-11T12:47:04.214Z,7.9
2018-11-11T12:48:05.827Z,7.9
2018-11-11T12:49:08.080Z,7.9
2018-11-11T12:50:09.464Z,7.9
2018-11-11T12:51:11.123Z,7.9
2018-11-11T12:52:12.365Z,7.9
2018-11-11T12:53:13.748Z,7.9
2018-11-11T12:54:14.979Z,7.9
2018-11-11T12:55:17.111Z,7.9
2018-11-11T12:56:18.414Z,7.9
2018-11-11T12:57:19.998Z,7.9
2018-11-11T12:58:21.569Z,7.9
2018-11-11T12:59:22.666Z,7.9
2018-11-11T13:00:23.905Z,7.9
2018-11-11T13:01:25.328Z,7.9
2018-11-11T13:02:26.906Z,7.9
2018-11-11T13:03:28.132Z,7.9
2018-11-11T13:04:29.267Z,7.9
2018-11-11T13:05:30.598Z,7.9
2018-11-11T13:06:31.676Z,7.9
2018-11-11T13:07:33.245Z,7.9
2018-11-11T13:08:34.795Z,7.9
2018-11-11T13:09:36.014Z,7.9
2018-11-11T13:10:37.246Z,7.2
2018-11-11T13:11:39.132Z,7.3
2018-11-11T13:12:40.289Z,7.4
2018-11-11T13:13:41.906Z,7.6
2018-11-11T13:14:43.149Z,7.7
2018-11-11T13:15:44.380Z,7.8
2018-11-11T13:16:45.469Z,7.9
2018-11-11T13:17:46.375Z,7.9
2018-11-11T13:18:47.967Z,7.9
2018-11-11T13:19:49.777Z,7.8
2018-11-11T13:20:51.229Z,7.8
2018-11-11T13:21:52.658Z,7.7
2018-11-11T13:22:54.274Z,7.6
2018-11-11T13:23:55.222Z,7.4
2018-11-11T13:24:56.620Z,7.2
2018-11-11T13:25:58.041Z,7.2
2018-11-11T13:26:59.289Z,7.1
2018-11-11T13:28:00.698Z,7.1
2018-11-11T13:29:01.753Z,7.2
2018-11-11T13:30:03.161Z,7.1
2018-11-11T13:31:04.209Z,7.1
2018-11-11T13:32:06.910Z,7.1
2018-11-11T13:33:08.535Z,7.1
2018-11-11T13:34:10.123Z,7.1
2018-11-11T13:35:11.168Z,7.1
2018-11-11T13:36:12.551Z,7.1
2018-11-11T13:37:14.120Z,7.1
2018-11-11T13:38:15.561Z,7.1
2018-11-11T13:39:16.936Z,7.2
2018-11-11T13:40:18.370Z,7.1
2018-11-11T13:41:19.935Z,7.2
2018-11-11T13:42:21.324Z,7.1
2018-11-11T13:43:23.108Z,7.2
2018-11-11T13:44:24.736Z,7.2
2018-11-11T13:45:25.975Z,7.2
2018-11-11T13:46:27.928Z,7.2
2018-11-11T13:47:29.404Z,7.2
2018-11-11T13:48:30.788Z,7.2
2018-11-11T13:49:32.346Z,7.2
2018-11-11T13:50:33.657Z,7.2
2018-11-11T13:51:34.995Z,7.2
2018-11-11T13:52:36.384Z,7.2
2018-11-11T13:53:37.980Z,7.2
2018-11-11T13:54:39.394Z,7.2
2018-11-11T13:55:40.948Z,7.2
2018-11-11T13:56:41.988Z,7.2
2018-11-11T13:57:43.377Z,7.2
2018-11-11T13:58:44.461Z,7.2
2018-11-11T13:59:45.862Z,7.2
2018-11-11T14:00:47.268Z,7.2
2018-11-11T14:01:49.888Z,7.2
2018-11-11T14:02:51.151Z,7.2
2018-11-11T14:03:52.370Z,7.2
2018-11-11T14:04:53.391Z,7.2
2018-11-11T14:05:54.807Z,7.2